Time;durP1;ratioP1;P1;durP2;ratioP2;P2;SDS_P1;SDS_P2;PMS_P1;PMS_P2;Temp;Humidity;BMP_temperature;BMP_pressure;BME280_temperature;BME280_humidity;BME280_pressure;Samples;Min_cycle;Max_cycle;Signal;HPM_P1;HPM_P2
2023/04/27 00:01:46;;;;;;;16.17;4.22;;;7.40;99.90;;;;;;5035866;28;20041;-79
2023/04/27 00:04:13;;;;;;;11.02;4.22;;;7.30;99.90;;;;;;5037332;28;20045;-79
2023/04/27 00:06:40;;;;;;;18.15;4.78;;;7.20;99.90;;;;;;5035904;28;20041;-79
2023/04/27 00:09:07;;;;;;;11.10;3.92;;;7.10;99.90;;;;;;5036689;28;20424;-79
2023/04/27 00:11:34;;;;;;;12.13;4.45;;;7.00;99.90;;;;;;5035925;28;20037;-79
2023/04/27 00:14:00;;;;;;;10.20;4.07;;;7.00;99.90;;;;;;5034742;28;20030;-79
2023/04/27 00:16:27;;;;;;;12.48;4.60;;;6.90;99.90;;;;;;5036613;28;20041;-79
2023/04/27 00:18:54;;;;;;;14.60;4.70;;;6.90;99.90;;;;;;5036311;28;20041;-79
2023/04/27 00:21:21;;;;;;;10.80;4.40;;;6.80;99.90;;;;;;5035828;28;20060;-79
2023/04/27 00:23:47;;;;;;;14.18;4.90;;;6.80;99.90;;;;;;5035968;28;20061;-79
2023/04/27 00:26:14;;;;;;;11.32;3.65;;;6.80;99.90;;;;;;5036191;28;20046;-79
2023/04/27 00:28:45;;;;;;;11.88;4.18;;;6.70;99.90;;;;;;5035299;28;20071;-79
2023/04/27 00:31:12;;;;;;;15.30;4.60;;;6.70;99.90;;;;;;5035117;28;20037;-79
2023/04/27 00:33:39;;;;;;;15.00;4.40;;;6.70;99.90;;;;;;5035290;28;20045;-78
2023/04/27 00:36:05;;;;;;;12.40;4.00;;;6.60;99.90;;;;;;5036251;28;20041;-79
2023/04/27 00:38:33;;;;;;;12.15;3.95;;;6.50;99.90;;;;;;5036384;28;20056;-79
2023/04/27 00:41:00;;;;;;;13.60;3.70;;;6.50;99.90;;;;;;5017886;28;20053;-79
2023/04/27 00:43:26;;;;;;;14.40;4.43;;;6.50;99.90;;;;;;5034870;28;20053;-79
2023/04/27 00:45:53;;;;;;;12.57;3.90;;;6.40;99.90;;;;;;5034791;28;20049;-79
2023/04/27 00:48:22;;;;;;;11.18;4.13;;;6.40;99.90;;;;;;5033998;28;20092;-79
2023/04/27 00:50:49;;;;;;;17.10;4.45;;;6.30;99.90;;;;;;5018810;28;20052;-79
2023/04/27 00:53:16;;;;;;;14.40;4.57;;;6.30;99.90;;;;;;5035606;28;20041;-79
2023/04/27 00:55:42;;;;;;;9.80;3.65;;;6.30;99.90;;;;;;5034041;28;20136;-79
2023/04/27 00:58:10;;;;;;;13.30;4.30;;;6.20;99.90;;;;;;5018174;28;20045;-79
2023/04/27 01:00:37;;;;;;;9.05;3.78;;;6.20;99.90;;;;;;5033743;28;20064;-79
2023/04/27 01:03:04;;;;;;;13.85;4.25;;;6.20;99.90;;;;;;5034447;28;20464;-79
2023/04/27 01:05:31;;;;;;;12.10;4.15;;;6.10;99.90;;;;;;5035406;28;20037;-79
2023/04/27 01:08:00;;;;;;;14.25;4.55;;;6.10;99.90;;;;;;5033592;28;20482;-79
2023/04/27 01:10:27;;;;;;;9.73;3.60;;;6.10;99.90;;;;;;5034786;28;20056;-79
2023/04/27 01:12:54;;;;;;;12.10;4.25;;;6.00;99.90;;;;;;5034401;28;20038;-79
2023/04/27 01:15:21;;;;;;;14.82;4.40;;;6.00;99.90;;;;;;5033625;28;20099;-79
2023/04/27 01:20:35;;;;;;;14.23;4.20;;;5.90;99.90;;;;;;5033432;28;20041;-79
2023/04/27 01:23:02;;;;;;;11.43;3.90;;;5.90;99.90;;;;;;5035140;28;20376;-79
2023/04/27 01:25:28;;;;;;;15.60;4.70;;;5.90;99.90;;;;;;5034827;28;20148;-79
2023/04/27 01:27:57;;;;;;;11.88;4.07;;;5.90;99.90;;;;;;5033395;28;20041;-79
2023/04/27 01:30:24;;;;;;;11.98;3.97;;;5.90;99.90;;;;;;5017759;28;20041;-79
2023/04/27 01:32:51;;;;;;;10.40;3.80;;;5.90;99.90;;;;;;5033961;28;20380;-79
2023/04/27 01:35:18;;;;;;;16.63;4.25;;;5.90;99.90;;;;;;5032611;28;20052;-79
2023/04/27 01:37:46;;;;;;;13.20;4.63;;;5.80;99.90;;;;;;5034907;28;20045;-79
2023/04/27 01:40:12;;;;;;;12.38;4.50;;;5.80;99.90;;;;;;5033204;28;20049;-79
2023/04/27 01:42:39;;;;;;;13.82;4.90;;;5.80;99.90;;;;;;5034619;28;20060;-79
2023/04/27 01:45:07;;;;;;;16.88;5.47;;;5.80;99.90;;;;;;5033838;28;20441;-79
2023/04/27 01:47:35;;;;;;;19.58;5.70;;;5.80;99.90;;;;;;5033746;28;20073;-79
2023/04/27 01:50:02;;;;;;;19.90;6.10;;;5.80;99.90;;;;;;5034710;28;20056;-79
2023/04/27 01:52:29;;;;;;;14.57;4.85;;;5.80;99.90;;;;;;5034958;28;20045;-79
2023/04/27 01:54:56;;;;;;;15.77;5.25;;;5.80;99.90;;;;;;5032869;28;20526;-79
2023/04/27 01:57:24;;;;;;;13.55;5.50;;;5.80;99.90;;;;;;5033785;28;20080;-79
2023/04/27 01:59:51;;;;;;;16.45;5.32;;;5.80;99.90;;;;;;5033664;28;20045;-79
2023/04/27 02:02:17;;;;;;;14.73;5.43;;;5.90;99.90;;;;;;5032805;28;20056;-79
2023/04/27 02:04:44;;;;;;;13.93;5.32;;;5.90;99.90;;;;;;5034713;28;20041;-79
2023/04/27 02:07:12;;;;;;;21.27;6.75;;;6.00;99.90;;;;;;5032746;28;20446;-78
2023/04/27 02:09:39;;;;;;;17.02;6.22;;;6.00;99.90;;;;;;5033531;28;20052;-79
2023/04/27 02:12:07;;;;;;;17.65;5.65;;;6.10;99.90;;;;;;5033605;28;20473;-79
2023/04/27 02:14:34;;;;;;;16.60;5.72;;;6.10;99.90;;;;;;5032691;28;20353;-79
2023/04/27 02:17:00;;;;;;;19.70;6.93;;;6.20;99.90;;;;;;5034433;28;20392;-79
2023/04/27 02:19:28;;;;;;;21.13;6.53;;;6.20;99.90;;;;;;5034563;28;20038;-79
2023/04/27 02:21:55;;;;;;;18.27;6.13;;;6.30;99.90;;;;;;5033610;28;20484;-79
2023/04/27 02:24:22;;;;;;;26.02;7.18;;;6.30;99.90;;;;;;5034918;28;20045;-79
2023/04/27 02:26:48;;;;;;;16.98;6.10;;;6.30;99.90;;;;;;5032652;28;20045;-78
2023/04/27 02:29:19;;;;;;;17.02;6.13;;;6.30;99.90;;;;;;5033378;28;20042;-79
2023/04/27 02:31:46;;;;;;;20.88;6.32;;;6.30;99.90;;;;;;5034342;28;20544;-79
2023/04/27 02:34:13;;;;;;;22.77;6.20;;;6.30;99.90;;;;;;5016256;28;20077;-79
2023/04/27 02:36:40;;;;;;;16.88;4.90;;;6.40;99.90;;;;;;5034250;28;20042;-79
2023/04/27 02:39:08;;;;;;;15.00;5.20;;;6.30;99.90;;;;;;5033395;28;20053;-79
2023/04/27 02:41:37;;;;;;;25.13;5.88;;;6.30;99.90;;;;;;5033509;28;20042;-79
2023/04/27 02:44:03;;;;;;;19.88;6.55;;;6.30;99.90;;;;;;5032999;28;20061;-79
2023/04/27 02:46:30;;;;;;;22.02;7.70;;;6.30;99.90;;;;;;5017897;28;20049;-79
2023/04/27 02:48:58;;;;;;;21.77;6.78;;;6.30;99.90;;;;;;5036325;28;20064;-79
2023/04/27 02:51:25;;;;;;;19.10;6.40;;;6.20;99.90;;;;;;5037147;28;20527;-79
2023/04/27 02:53:53;;;;;;;16.63;6.05;;;6.20;99.90;;;;;;5036763;28;20038;-79
2023/04/27 02:56:19;;;;;;;24.85;8.05;;;6.20;99.90;;;;;;5036812;28;20446;-79
2023/04/27 02:58:47;;;;;;;23.20;7.28;;;6.20;99.90;;;;;;5037832;28;20360;-79
2023/04/27 03:01:16;;;;;;;24.88;7.97;;;6.20;99.90;;;;;;5036371;28;20380;-79
2023/04/27 03:03:42;;;;;;;18.05;7.10;;;6.20;99.90;;;;;;5036760;28;20037;-79
2023/04/27 03:06:09;;;;;;;20.52;7.38;;;6.20;99.90;;;;;;5036731;28;20080;-79
2023/04/27 03:08:36;;;;;;;19.77;7.13;;;6.20;99.90;;;;;;5019374;28;20056;-79
2023/04/27 03:11:03;;;;;;;19.45;7.10;;;6.20;99.90;;;;;;5036633;28;20137;-79
2023/04/27 03:13:30;;;;;;;20.23;7.70;;;6.20;99.90;;;;;;5036002;28;20144;-79
2023/04/27 03:15:58;;;;;;;23.90;6.53;;;6.20;99.90;;;;;;5036687;28;20091;-79
2023/04/27 03:18:25;;;;;;;18.70;6.55;;;6.20;99.90;;;;;;5036444;28;20037;-79
2023/04/27 03:20:52;;;;;;;16.50;5.90;;;6.20;99.90;;;;;;5036621;28;20041;-78
2023/04/27 03:23:19;;;;;;;22.25;6.72;;;6.20;99.90;;;;;;5036425;28;20103;-79
2023/04/27 03:25:48;;;;;;;18.27;6.55;;;6.10;99.90;;;;;;5036398;28;20448;-79
2023/04/27 03:28:15;;;;;;;19.27;6.70;;;6.10;99.90;;;;;;5035457;28;20046;-79
2023/04/27 03:30:41;;;;;;;29.55;8.35;;;6.10;99.90;;;;;;5036184;28;20141;-79
2023/04/27 03:33:08;;;;;;;22.13;7.28;;;6.00;99.90;;;;;;5036096;28;20045;-79
2023/04/27 03:35:35;;;;;;;23.63;6.95;;;6.00;99.90;;;;;;5019173;28;20080;-79
2023/04/27 03:38:04;;;;;;;19.23;6.90;;;6.00;99.90;;;;;;5036180;28;20041;-79
2023/04/27 03:40:31;;;;;;;22.17;6.93;;;5.90;99.90;;;;;;5035359;28;20353;-79
2023/04/27 03:42:57;;;;;;;18.50;6.78;;;5.90;99.90;;;;;;5019501;28;20064;-79
2023/04/27 03:45:25;;;;;;;25.88;6.95;;;5.90;99.90;;;;;;5036034;28;20083;-79
2023/04/27 03:47:52;;;;;;;24.55;7.70;;;5.90;99.90;;;;;;5035017;28;20038;-79
2023/04/27 03:50:19;;;;;;;23.92;8.07;;;6.00;99.90;;;;;;5035987;28;20073;-79
2023/04/27 03:52:45;;;;;;;27.65;7.80;;;6.00;99.90;;;;;;5035751;28;20049;-79
2023/04/27 03:55:12;;;;;;;31.05;8.05;;;6.00;99.90;;;;;;5035034;28;20392;-78
2023/04/27 03:57:43;;;;;;;23.38;7.55;;;6.00;99.90;;;;;;5035198;28;20155;-78
2023/04/27 04:00:11;;;;;;;23.48;7.68;;;6.00;99.90;;;;;;5034757;28;20057;-79
2023/04/27 04:02:41;;;;;;;27.65;7.93;;;6.00;99.90;;;;;;5019732;28;20132;-78
2023/04/27 04:05:08;;;;;;;20.60;7.30;;;6.00;99.90;;;;;;5035619;28;20057;-78
2023/04/27 04:07:36;;;;;;;22.70;8.05;;;6.00;99.90;;;;;;5034983;28;20387;-78
2023/04/27 04:10:03;;;;;;;24.60;9.00;;;6.00;99.90;;;;;;5035551;28;20353;-78
2023/04/27 04:12:30;;;;;;;26.23;8.77;;;6.00;99.90;;;;;;5036436;28;20530;-79
2023/04/27 04:14:57;;;;;;;28.23;8.20;;;6.00;99.90;;;;;;5034901;28;20045;-78
2023/04/27 04:17:24;;;;;;;29.40;9.70;;;6.00;99.90;;;;;;5035371;28;20123;-79
2023/04/27 04:19:50;;;;;;;31.20;9.05;;;6.00;99.90;;;;;;5035401;28;20480;-78
2023/04/27 04:22:17;;;;;;;28.50;8.27;;;6.10;99.90;;;;;;5034508;28;20051;-79
2023/04/27 04:24:44;;;;;;;30.98;8.35;;;6.10;99.90;;;;;;5035304;28;20068;-78
2023/04/27 04:29:59;;;;;;;22.48;8.45;;;6.00;99.90;;;;;;5036142;28;20116;-78
2023/04/27 04:32:28;;;;;;;32.08;9.75;;;6.00;99.90;;;;;;5035208;28;20033;-79
2023/04/27 04:34:55;;;;;;;22.17;8.30;;;6.00;99.90;;;;;;5034396;28;20038;-78
2023/04/27 04:39:52;;;;;;;22.25;8.98;;;6.00;99.90;;;;;;5035093;28;20148;-78
2023/04/27 04:42:19;;;;;;;27.95;10.15;;;6.10;99.90;;;;;;5035318;28;20068;-79
2023/04/27 04:44:46;;;;;;;25.00;9.50;;;6.00;99.90;;;;;;5038323;28;20099;-78
2023/04/27 04:47:13;;;;;;;28.95;10.35;;;6.10;99.90;;;;;;5055117;28;20044;-78
2023/04/27 04:49:40;;;;;;;29.55;9.38;;;6.10;99.90;;;;;;5038070;28;20562;-78
2023/04/27 04:52:07;;;;;;;27.95;9.57;;;6.20;99.90;;;;;;5038037;28;20456;-78
2023/04/27 04:54:33;;;;;;;29.27;9.38;;;6.20;99.90;;;;;;5037133;28;20040;-78
2023/04/27 04:57:02;;;;;;;37.38;10.60;;;6.20;99.90;;;;;;5037951;28;20037;-78
2023/04/27 04:59:29;;;;;;;27.30;9.82;;;6.20;99.90;;;;;;5020162;28;20107;-78
2023/04/27 05:01:57;;;;;;;25.13;9.43;;;6.20;99.90;;;;;;5017359;28;20041;-79
2023/04/27 05:04:25;;;;;;;25.75;9.40;;;6.30;99.90;;;;;;5035458;28;20052;-78
2023/04/27 05:06:52;;;;;;;37.97;11.05;;;6.30;99.90;;;;;;5034512;28;20045;-78
2023/04/27 05:09:19;;;;;;;28.52;10.23;;;6.30;99.90;;;;;;5034876;28;20368;-78
2023/04/27 05:11:45;;;;;;;27.77;10.95;;;6.40;99.90;;;;;;5035102;28;20349;-79
2023/04/27 05:14:12;;;;;;;34.45;11.32;;;6.40;99.90;;;;;;5034807;28;20056;-78
2023/04/27 05:16:38;;;;;;;32.13;10.20;;;6.40;99.90;;;;;;5017932;28;20045;-79
2023/04/27 05:19:08;;;;;;;37.45;13.25;;;6.50;99.90;;;;;;5018343;28;20084;-78
2023/04/27 05:21:34;;;;;;;35.70;11.55;;;6.50;99.90;;;;;;5017350;28;20052;-79
2023/04/27 05:24:01;;;;;;;30.70;10.60;;;6.60;99.90;;;;;;5035009;28;20051;-79
2023/04/27 05:26:27;;;;;;;32.15;10.35;;;6.60;99.90;;;;;;5018090;28;20456;-79
2023/04/27 05:28:56;;;;;;;30.27;11.20;;;6.70;99.90;;;;;;5034262;28;20052;-79
2023/04/27 05:31:23;;;;;;;29.00;11.55;;;6.70;99.90;;;;;;5034972;28;20041;-79
2023/04/27 05:33:50;;;;;;;31.65;11.73;;;6.80;99.90;;;;;;5016761;28;20107;-79
2023/04/27 05:36:16;;;;;;;33.30;12.02;;;6.90;99.90;;;;;;5017361;28;20063;-79
2023/04/27 05:38:44;;;;;;;32.75;11.63;;;6.90;99.90;;;;;;5034813;28;20460;-79
2023/04/27 05:41:11;;;;;;;36.17;11.90;;;7.00;99.90;;;;;;5016896;28;20045;-79
2023/04/27 05:43:38;;;;;;;33.35;11.82;;;7.00;99.90;;;;;;5017153;28;20388;-79
2023/04/27 05:46:04;;;;;;;30.00;11.15;;;7.00;99.90;;;;;;5034625;28;20045;-79
2023/04/27 05:51:17;;;;;;;37.58;12.07;;;7.10;99.90;;;;;;5034643;28;20037;-79
2023/04/27 05:53:45;;;;;;;37.30;12.32;;;7.10;99.90;;;;;;5033816;28;20033;-79
2023/04/27 05:56:11;;;;;;;41.17;13.90;;;7.20;99.90;;;;;;5034761;28;20051;-79
2023/04/27 05:58:38;;;;;;;35.65;13.48;;;7.30;99.90;;;;;;5033627;28;20051;-79
2023/04/27 06:01:05;;;;;;;40.00;12.35;;;7.40;99.90;;;;;;5033349;28;20133;-79
2023/04/27 06:03:32;;;;;;;31.65;12.32;;;7.50;99.90;;;;;;5017259;28;20512;-79
2023/04/27 06:05:59;;;;;;;36.97;13.38;;;7.60;99.90;;;;;;5034623;28;20045;-79
2023/04/27 06:11:11;;;;;;;38.05;13.77;;;8.00;99.90;;;;;;5034751;28;20060;-79
2023/04/27 06:13:37;;;;;;;36.50;14.15;;;8.20;99.90;;;;;;5032935;28;20042;-79
2023/04/27 06:16:04;;;;;;;38.00;12.95;;;8.30;99.90;;;;;;5034489;28;20040;-79
2023/04/27 06:18:32;;;;;;;38.72;14.50;;;8.40;99.90;;;;;;5017131;28;20503;-79
2023/04/27 06:21:00;;;;;;;39.78;13.85;;;8.40;99.90;;;;;;5033822;28;20122;-79
2023/04/27 06:23:27;;;;;;;32.97;13.32;;;8.50;99.90;;;;;;5038483;28;20464;-79
2023/04/27 06:25:54;;;;;;;39.80;12.40;;;8.60;99.90;;;;;;5038457;28;20115;-79
2023/04/27 06:28:21;;;;;;;35.92;12.10;;;8.60;99.90;;;;;;5037671;28;20464;-79
2023/04/27 06:30:47;;;;;;;38.13;13.55;;;8.70;99.90;;;;;;5038448;28;20132;-79
2023/04/27 06:33:14;;;;;;;31.85;13.00;;;8.80;99.90;;;;;;5021219;28;20041;-79
2023/04/27 06:35:41;;;;;;;36.60;12.95;;;8.80;99.90;;;;;;5037508;28;20113;-79
2023/04/27 06:38:09;;;;;;;33.20;13.55;;;8.90;99.90;;;;;;5038232;28;20044;-79
2023/04/27 06:40:36;;;;;;;30.88;12.82;;;8.90;99.90;;;;;;5037046;28;20495;-79
2023/04/27 06:43:03;;;;;;;36.83;13.27;;;8.90;99.90;;;;;;5037280;28;20111;-79
2023/04/27 06:45:30;;;;;;;35.03;12.52;;;9.00;99.90;;;;;;5037414;28;20140;-79
2023/04/27 06:47:58;;;;;;;31.63;12.68;;;9.00;99.90;;;;;;5037186;28;20045;-79
2023/04/27 06:50:25;;;;;;;34.75;12.25;;;9.10;99.90;;;;;;5037887;28;20049;-79
2023/04/27 06:52:51;;;;;;;30.17;12.70;;;9.10;99.90;;;;;;5037969;28;20046;-79
2023/04/27 06:55:18;;;;;;;35.30;14.43;;;9.10;99.90;;;;;;5037065;28;20045;-79
2023/04/27 06:57:45;;;;;;;32.90;12.60;;;9.10;99.90;;;;;;5036987;28;20038;-79
2023/04/27 07:00:12;;;;;;;29.02;12.85;;;9.20;99.90;;;;;;5036253;28;20144;-79
2023/04/27 07:02:39;;;;;;;32.22;12.73;;;9.20;99.90;;;;;;5036815;28;20357;-78
2023/04/27 07:05:06;;;;;;;31.92;11.85;;;9.30;99.90;;;;;;5037866;28;20124;-79
2023/04/27 07:07:33;;;;;;;28.75;11.88;;;9.30;99.90;;;;;;5039512;28;20056;-79
2023/04/27 07:10:00;;;;;;;31.45;12.98;;;9.40;99.90;;;;;;5037731;28;20049;-78
2023/04/27 07:12:27;;;;;;;29.35;12.18;;;9.40;99.90;;;;;;5036696;28;20037;-78
2023/04/27 07:14:53;;;;;;;31.50;12.07;;;9.40;99.90;;;;;;5036405;28;20419;-78
2023/04/27 07:17:20;;;;;;;30.52;12.25;;;9.40;99.90;;;;;;5036599;28;20083;-78
2023/04/27 07:19:47;;;;;;;27.17;11.32;;;9.50;99.90;;;;;;5037584;28;20080;-78
2023/04/27 07:22:14;;;;;;;31.30;12.38;;;9.50;99.90;;;;;;5037197;28;20428;-79
2023/04/27 07:24:41;;;;;;;33.08;11.52;;;9.60;99.90;;;;;;5038529;28;20083;-80
2023/04/27 07:27:09;;;;;;;33.78;12.50;;;9.70;99.90;;;;;;5037346;28;20052;-80
2023/04/27 07:29:36;;;;;;;29.58;11.77;;;9.70;99.90;;;;;;5045991;28;20045;-79
2023/04/27 07:32:03;;;;;;;27.67;10.75;;;9.70;99.90;;;;;;5036818;28;20060;-79
2023/04/27 07:34:38;;;;;;;24.80;10.57;;;9.80;99.90;;;;;;5034989;28;20073;-78
2023/04/27 07:37:18;;;;;;;28.33;11.98;;;9.80;99.90;;;;;;5035438;28;20046;-78
2023/04/27 07:39:46;;;;;;;28.33;11.98;;;9.90;99.90;;;;;;5033503;28;20037;-78
2023/04/27 07:42:14;;;;;;;27.00;10.98;;;10.00;99.90;;;;;;5037364;28;20041;-78
2023/04/27 07:44:41;;;;;;;25.42;10.23;;;10.10;99.90;;;;;;5036487;28;20597;-80
2023/04/27 07:47:09;;;;;;;27.23;11.90;;;10.10;99.90;;;;;;5034363;28;20077;-79
2023/04/27 07:49:36;;;;;;;23.63;10.20;;;10.20;99.90;;;;;;5035300;28;20103;-79
2023/04/27 07:52:03;;;;;;;27.35;10.50;;;10.30;99.90;;;;;;5036311;28;20479;-78
2023/04/27 07:54:30;;;;;;;21.88;9.77;;;10.30;99.90;;;;;;5035539;28;20045;-79
2023/04/27 07:56:57;;;;;;;27.38;10.57;;;10.40;99.90;;;;;;5035339;28;20096;-79
2023/04/27 07:59:24;;;;;;;27.70;9.85;;;10.40;99.90;;;;;;5036203;28;20045;-79
2023/04/27 08:01:51;;;;;;;22.63;9.73;;;10.50;99.90;;;;;;5034274;28;20132;-79
2023/04/27 08:04:17;;;;;;;26.20;10.10;;;10.70;99.90;;;;;;5036402;28;20710;-78
2023/04/27 08:06:45;;;;;;;22.95;8.55;;;10.90;99.90;;;;;;5034301;28;20120;-78
2023/04/27 08:09:14;;;;;;;26.00;9.30;;;11.00;99.90;;;;;;5035523;28;20049;-78
2023/04/27 08:11:41;;;;;;;22.17;9.75;;;11.10;99.90;;;;;;5035413;28;20065;-79
2023/04/27 08:14:12;;;;;;;22.80;9.88;;;11.20;99.90;;;;;;5033725;28;20041;-78
2023/04/27 08:16:39;;;;;;;17.27;8.25;;;11.30;99.90;;;;;;5034369;28;20041;-80
2023/04/27 08:19:06;;;;;;;19.80;8.73;;;11.30;99.90;;;;;;5013858;28;20041;-79
2023/04/27 08:21:32;;;;;;;21.45;8.90;;;11.30;99.90;;;;;;5032819;28;20112;-78
2023/04/27 08:23:59;;;;;;;23.90;9.82;;;11.40;99.90;;;;;;5029264;28;20041;-78
2023/04/27 08:26:26;;;;;;;20.42;8.85;;;11.50;99.90;;;;;;5035641;28;20103;-79
2023/04/27 08:32:02;;;;;;;24.05;8.45;;;11.80;99.90;;;;;;5035906;28;20064;-79
2023/04/27 08:34:30;;;;;;;22.63;9.50;;;11.90;99.90;;;;;;5034202;28;20068;-79
2023/04/27 08:36:57;;;;;;;21.25;9.23;;;11.90;99.90;;;;;;5035848;28;20042;-80
2023/04/27 08:39:25;;;;;;;22.60;8.90;;;11.80;99.90;;;;;;5035045;28;20129;-80
2023/04/27 08:41:52;;;;;;;28.73;9.45;;;11.90;99.90;;;;;;5034176;28;20115;-80
2023/04/27 08:44:21;;;;;;;21.80;8.70;;;11.90;99.90;;;;;;5035573;28;20053;-80
2023/04/27 08:46:49;;;;;;;22.55;8.75;;;11.90;99.90;;;;;;5034143;28;20041;-79
2023/04/27 08:49:16;;;;;;;17.77;7.78;;;12.00;99.90;;;;;;5034693;28;20088;-80
2023/04/27 08:51:58;;;;;;;21.50;8.98;;;12.10;99.90;;;;;;5035985;28;20053;-80
2023/04/27 08:54:26;;;;;;;21.88;8.07;;;12.20;99.90;;;;;;5033631;28;20076;-80
2023/04/27 08:56:52;;;;;;;20.77;9.23;;;12.40;99.90;;;;;;5034643;28;20049;-79
2023/04/27 08:59:21;;;;;;;22.20;8.60;;;12.40;99.90;;;;;;5017072;28;20046;-80
2023/04/27 09:01:48;;;;;;;20.88;8.15;;;12.60;99.90;;;;;;5014137;28;20056;-79
2023/04/27 09:04:16;;;;;;;20.67;8.20;;;12.60;99.90;;;;;;5015628;28;20042;-81
2023/04/27 09:06:43;;;;;;;17.38;8.35;;;12.60;99.90;;;;;;5014860;28;20046;-79
2023/04/27 09:09:11;;;;;;;18.60;7.88;;;12.70;99.90;;;;;;5014819;28;20042;-77
2023/04/27 09:11:38;;;;;;;22.73;7.68;;;12.70;99.90;;;;;;5015810;28;20038;-79
2023/04/27 09:14:05;;;;;;;22.85;8.63;;;12.80;99.90;;;;;;5013475;28;20033;-79
2023/04/27 09:16:32;;;;;;;18.73;7.80;;;12.80;99.90;;;;;;5014216;28;20100;-80
2023/04/27 09:19:00;;;;;;;23.98;8.63;;;12.90;99.90;;;;;;5014378;28;20413;-80
2023/04/27 09:21:27;;;;;;;19.30;8.88;;;13.10;99.90;;;;;;5013699;28;20421;-80
2023/04/27 09:23:54;;;;;;;23.15;9.13;;;13.20;99.90;;;;;;5014497;28;20084;-78
2023/04/27 09:26:21;;;;;;;23.00;9.30;;;13.20;99.90;;;;;;5030792;28;20045;-81
2023/04/27 09:28:49;;;;;;;21.88;8.30;;;13.30;99.90;;;;;;4997262;28;20583;-79
2023/04/27 09:31:15;;;;;;;20.48;8.32;;;13.40;99.90;;;;;;4997993;28;20048;-79
2023/04/27 09:33:42;;;;;;;21.38;8.32;;;13.60;99.90;;;;;;5014213;28;20124;-79
2023/04/27 09:36:09;;;;;;;22.75;8.55;;;13.60;99.90;;;;;;4998412;28;20489;-80
2023/04/27 09:38:36;;;;;;;22.83;9.02;;;13.70;99.90;;;;;;5015250;28;20111;-81
2023/04/27 09:41:02;;;;;;;19.23;8.13;;;13.90;99.90;;;;;;5014376;28;20469;-81
2023/04/27 09:43:31;;;;;;;18.15;8.35;;;14.10;99.90;;;;;;5030404;28;20072;-80
2023/04/27 09:45:58;;;;;;;20.45;8.02;;;14.20;99.90;;;;;;5030557;28;20050;-81
2023/04/27 09:48:27;;;;;;;23.20;8.40;;;14.20;99.90;;;;;;5014141;28;20042;-80
2023/04/27 09:50:53;;;;;;;22.10;8.20;;;14.10;99.90;;;;;;5014427;28;20048;-81
2023/04/27 09:53:20;;;;;;;17.90;7.57;;;14.20;99.90;;;;;;5014220;28;20037;-81
2023/04/27 09:55:47;;;;;;;19.02;7.57;;;14.30;99.90;;;;;;5014668;28;20033;-81
2023/04/27 09:58:17;;;;;;;15.38;7.57;;;14.30;99.90;;;;;;4998050;28;20057;-82
2023/04/27 10:00:43;;;;;;;20.02;7.95;;;14.40;99.90;;;;;;5029760;28;20042;-81
2023/04/27 10:03:10;;;;;;;14.75;7.20;;;14.40;99.90;;;;;;5014887;28;20107;-81
2023/04/27 10:05:37;;;;;;;20.38;6.93;;;14.70;99.90;;;;;;5014908;28;20103;-81
2023/04/27 10:10:50;;;;;;;19.55;6.43;;;15.00;99.90;;;;;;5014845;28;20376;-82
2023/04/27 10:13:17;;;;;;;18.52;6.03;;;15.20;99.90;;;;;;5030384;28;20068;-81
2023/04/27 10:15:43;;;;;;;17.58;6.30;;;15.30;99.90;;;;;;5029727;28;20042;-82
2023/04/27 10:18:12;;;;;;;19.48;6.50;;;15.40;99.90;;;;;;5014119;28;20080;-81
2023/04/27 10:20:39;;;;;;;14.80;5.65;;;15.40;99.90;;;;;;5013857;28;20053;-82
2023/04/27 10:23:06;;;;;;;16.17;6.15;;;15.40;99.90;;;;;;5013755;28;20065;-81
2023/04/27 10:25:33;;;;;;;15.10;5.78;;;15.40;98.80;;;;;;5032863;28;20475;-82
2023/04/27 10:28:01;;;;;;;14.90;6.38;;;15.30;99.00;;;;;;5032561;28;20475;-82
2023/04/27 10:30:28;;;;;;;14.43;6.18;;;15.40;99.00;;;;;;5033450;28;20435;-82
2023/04/27 10:32:54;;;;;;;17.05;6.30;;;15.20;97.20;;;;;;5033499;28;20120;-82
2023/04/27 10:35:21;;;;;;;13.10;5.32;;;15.30;97.20;;;;;;5032593;28;20050;-82
2023/04/27 10:37:51;;;;;;;15.90;5.53;;;15.50;98.30;;;;;;5033266;28;20061;-80
2023/04/27 10:40:17;;;;;;;18.27;5.60;;;15.80;97.10;;;;;;5044711;28;20053;-81
2023/04/27 10:42:44;;;;;;;17.60;5.65;;;16.10;97.80;;;;;;5034233;28;20057;-80
2023/04/27 10:45:14;;;;;;;15.07;5.75;;;16.20;95.70;;;;;;5033304;28;20100;-81
2023/04/27 10:47:43;;;;;;;16.30;5.88;;;16.50;96.70;;;;;;5032889;28;20056;-80
2023/04/27 10:50:10;;;;;;;12.15;5.15;;;16.90;93.90;;;;;;5033307;28;20057;-81
2023/04/27 10:52:37;;;;;;;16.05;5.50;;;17.00;93.90;;;;;;5034520;28;20037;-80
2023/04/27 10:55:04;;;;;;;13.38;5.20;;;16.80;92.50;;;;;;5032565;28;20125;-80
2023/04/27 10:57:31;;;;;;;12.48;4.88;;;16.70;95.90;;;;;;5033219;28;20041;-80
2023/04/27 10:59:58;;;;;;;14.45;4.93;;;16.80;95.80;;;;;;5034448;28;20041;-80
2023/04/27 11:02:25;;;;;;;16.17;5.60;;;17.30;92.90;;;;;;5033922;28;20045;-81
2023/04/27 11:04:52;;;;;;;15.05;5.65;;;18.00;92.60;;;;;;5034330;28;20136;-81
2023/04/27 11:07:19;;;;;;;15.32;5.30;;;18.10;90.90;;;;;;5033944;28;20049;-81
2023/04/27 11:09:46;;;;;;;15.23;5.82;;;18.20;91.20;;;;;;5037667;28;20531;-78
2023/04/27 11:12:12;;;;;;;11.30;5.00;;;18.00;88.30;;;;;;5037737;28;20140;-80
2023/04/27 11:14:42;;;;;;;14.95;4.85;;;17.90;89.70;;;;;;5035742;28;20042;-80
2023/04/27 11:17:09;;;;;;;12.55;5.18;;;17.80;89.90;;;;;;5037474;28;20535;-83
2023/04/27 11:19:40;;;;;;;13.68;5.63;;;17.60;88.10;;;;;;5037823;28;20034;-81
2023/04/27 11:22:06;;;;;;;11.95;5.10;;;17.40;88.50;;;;;;5036254;28;20049;-80
2023/04/27 11:24:33;;;;;;;10.55;4.55;;;17.30;88.80;;;;;;5036582;28;20045;-78
2023/04/27 11:27:00;;;;;;;11.43;4.75;;;17.20;89.90;;;;;;5036479;28;20059;-81
2023/04/27 11:32:15;;;;;;;13.95;4.85;;;16.60;88.30;;;;;;5037273;28;20048;-80
2023/04/27 11:34:42;;;;;;;18.15;7.10;;;16.60;91.00;;;;;;5035611;28;20532;-80
2023/04/27 11:37:09;;;;;;;12.93;5.10;;;16.30;89.00;;;;;;5035937;28;20041;-80
2023/04/27 11:39:44;;;;;;;12.43;4.78;;;16.10;90.30;;;;;;5037119;28;20041;-80
2023/04/27 11:42:11;;;;;;;17.75;5.35;;;16.20;91.00;;;;;;5036088;28;20124;-79
2023/04/27 11:44:39;;;;;;;12.18;4.85;;;16.20;90.60;;;;;;5036807;28;20053;-80
2023/04/27 11:47:06;;;;;;;14.77;5.20;;;16.20;91.30;;;;;;5036450;28;20052;-79
2023/04/27 11:49:33;;;;;;;11.63;4.95;;;16.00;91.20;;;;;;5036886;28;20080;-80
2023/04/27 11:51:59;;;;;;;11.75;5.13;;;16.00;91.50;;;;;;5036854;28;20041;-79
2023/04/27 11:54:26;;;;;;;11.38;4.82;;;16.10;92.10;;;;;;5035895;28;20034;-79
2023/04/27 11:56:53;;;;;;;11.85;4.43;;;16.00;91.80;;;;;;5019858;28;20526;-81
2023/04/27 12:01:49;;;;;;;10.98;5.18;;;15.70;91.50;;;;;;5036013;28;20043;-81
2023/04/27 12:04:16;;;;;;;14.30;5.00;;;15.70;92.60;;;;;;5035806;28;20041;-81
2023/04/27 12:06:43;;;;;;;14.60;5.28;;;15.70;93.00;;;;;;5035698;28;20080;-80
2023/04/27 12:09:10;;;;;;;18.20;5.53;;;15.70;93.10;;;;;;5036525;28;20055;-81
2023/04/27 12:11:37;;;;;;;11.88;4.40;;;15.50;92.80;;;;;;5036212;28;20037;-79
2023/04/27 12:14:03;;;;;;;14.10;4.50;;;15.50;93.30;;;;;;5035654;28;20042;-81
2023/04/27 12:16:30;;;;;;;12.02;4.55;;;15.70;93.30;;;;;;5035517;28;20033;-81
2023/04/27 12:19:00;;;;;;;15.52;5.18;;;15.80;94.10;;;;;;5035878;28;20049;-81
2023/04/27 12:21:27;;;;;;;13.88;5.30;;;15.90;93.70;;;;;;5034660;28;20055;-82
2023/04/27 12:23:53;;;;;;;9.73;4.03;;;15.80;93.50;;;;;;5036626;28;20045;-81
2023/04/27 12:26:20;;;;;;;16.20;4.68;;;15.80;94.80;;;;;;5035170;28;20143;-80
2023/04/27 12:28:50;;;;;;;12.43;4.10;;;15.80;94.60;;;;;;5034529;28;20079;-80
2023/04/27 12:31:21;;;;;;;13.32;4.43;;;15.90;95.80;;;;;;5036201;28;20039;-79
2023/04/27 12:33:51;;;;;;;14.40;4.82;;;15.90;94.00;;;;;;5034638;28;20053;-79
2023/04/27 12:36:17;;;;;;;10.73;4.55;;;16.00;94.60;;;;;;5035537;28;20041;-81
2023/04/27 12:38:44;;;;;;;12.27;4.30;;;16.10;95.70;;;;;;5035225;28;20060;-79
2023/04/27 12:41:10;;;;;;;12.57;4.78;;;16.30;94.80;;;;;;5035140;28;20527;-79
2023/04/27 12:43:39;;;;;;;9.82;4.20;;;16.40;95.00;;;;;;5035822;28;20064;-80
2023/04/27 12:46:06;;;;;;;13.27;4.90;;;16.70;95.30;;;;;;5034922;28;20041;-80
2023/04/27 12:48:35;;;;;;;11.70;4.40;;;16.60;95.10;;;;;;5034049;28;20487;-79
2023/04/27 12:51:02;;;;;;;9.68;4.63;;;16.70;93.80;;;;;;5035161;28;20052;-80
2023/04/27 12:53:29;;;;;;;12.38;4.80;;;16.70;92.30;;;;;;5034019;28;20037;-80
2023/04/27 12:55:55;;;;;;;16.10;5.70;;;16.60;92.80;;;;;;5034719;28;20115;-79
2023/04/27 12:58:23;;;;;;;12.57;5.32;;;16.30;93.10;;;;;;5034621;28;20136;-80
2023/04/27 13:00:52;;;;;;;16.80;5.68;;;16.10;93.40;;;;;;5034837;28;20467;-80
2023/04/27 13:03:19;;;;;;;11.80;5.28;;;16.20;94.00;;;;;;5032940;28;20053;-80
2023/04/27 13:05:46;;;;;;;13.32;5.22;;;16.10;93.40;;;;;;5032565;28;20045;-79